sensor_id;sensor_type;location;lat;lon;timestamp;pressure;altitude;pressure_sealevel;temperature;humidity
74161;BME280;62512;-46.434;168.382;2022-08-01T00:00:21;101383;;;unknown;60.91
74161;BME280;62512;-46.434;168.382;2022-08-01T00:01:21;101384;;;unknown;60.77
74161;BME280;62512;-46.434;168.382;2022-08-01T00:03:21;101381;;;unknown;60.56
74161;BME280;62512;-46.434;168.382;2022-08-01T00:05:21;101386;;;unknown;60.57
74161;BME280;62512;-46.434;168.382;2022-08-01T00:06:21;101381;;;unknown;60.56
74161;BME280;62512;-46.434;168.382;2022-08-01T00:07:21;101383;;;unknown;60.66
74161;BME280;62512;-46.434;168.382;2022-08-01T00:08:21;101381;;;unknown;60.55
74161;BME280;62512;-46.434;168.382;2022-08-01T00:09:21;101381;;;unknown;60.59
74161;BME280;62512;-46.434;168.382;2022-08-01T00:11:21;101381;;;unknown;60.62
74161;BME280;62512;-46.434;168.382;2022-08-01T00:12:21;101383;;;unknown;60.44
74161;BME280;62512;-46.434;168.382;2022-08-01T00:13:21;101379;;;unknown;60.46
74161;BME280;62512;-46.434;168.382;2022-08-01T00:14:21;101380;;;unknown;60.56
74161;BME280;62512;-46.434;168.382;2022-08-01T00:15:21;101378;;;unknown;60.71
74161;BME280;62512;-46.434;168.382;2022-08-01T00:16:21;101379;;;unknown;60.86
74161;BME280;62512;-46.434;168.382;2022-08-01T00:20:21;101378;;;unknown;60.97
74161;BME280;62512;-46.434;168.382;2022-08-01T00:21:21;101376;;;unknown;61.09
74161;BME280;62512;-46.434;168.382;2022-08-01T00:22:21;101373;;;unknown;61.19
74161;BME280;62512;-46.434;168.382;2022-08-01T00:23:21;101368;;;unknown;61.33
74161;BME280;62512;-46.434;168.382;2022-08-01T00:24:22;101368;;;unknown;61.44
74161;BME280;62512;-46.434;168.382;2022-08-01T00:25:21;101362;;;unknown;61.23
74161;BME280;62512;-46.434;168.382;2022-08-01T00:26:21;101362;;;unknown;61.04
74161;BME280;62512;-46.434;168.382;2022-08-01T00:27:21;101360;;;unknown;61.13
74161;BME280;62512;-46.434;168.382;2022-08-01T00:28:21;101358;;;unknown;61.28
74161;BME280;62512;-46.434;168.382;2022-08-01T00:32:22;101358;;;unknown;61.64
74161;BME280;62512;-46.434;168.382;2022-08-01T00:33:21;101353;;;unknown;61.85
74161;BME280;62512;-46.434;168.382;2022-08-01T00:34:21;101355;;;unknown;61.94
74161;BME280;62512;-46.434;168.382;2022-08-01T00:35:21;101352;;;unknown;61.93
74161;BME280;62512;-46.434;168.382;2022-08-01T00:37:21;101343;;;unknown;62.00
74161;BME280;62512;-46.434;168.382;2022-08-01T00:38:21;101343;;;unknown;62.10
74161;BME280;62512;-46.434;168.382;2022-08-01T00:39:21;101339;;;unknown;62.06
74161;BME280;62512;-46.434;168.382;2022-08-01T00:40:21;101340;;;unknown;62.13
74161;BME280;62512;-46.434;168.382;2022-08-01T00:41:21;101340;;;unknown;62.06
74161;BME280;62512;-46.434;168.382;2022-08-01T00:42:21;101342;;;unknown;62.08
74161;BME280;62512;-46.434;168.382;2022-08-01T00:43:21;101337;;;unknown;62.14
74161;BME280;62512;-46.434;168.382;2022-08-01T00:44:21;101335;;;unknown;62.28
74161;BME280;62512;-46.434;168.382;2022-08-01T00:45:21;101333;;;unknown;62.29
74161;BME280;62512;-46.434;168.382;2022-08-01T00:46:21;101333;;;unknown;62.36
74161;BME280;62512;-46.434;168.382;2022-08-01T00:49:21;101316;;;unknown;62.07
74161;BME280;62512;-46.434;168.382;2022-08-01T00:50:21;101319;;;unknown;61.88
74161;BME280;62512;-46.434;168.382;2022-08-01T00:51:21;101316;;;unknown;61.83
74161;BME280;62512;-46.434;168.382;2022-08-01T00:52:21;101305;;;unknown;61.84
74161;BME280;62512;-46.434;168.382;2022-08-01T00:53:21;101310;;;unknown;61.82
74161;BME280;62512;-46.434;168.382;2022-08-01T00:54:21;101307;;;unknown;61.86
74161;BME280;62512;-46.434;168.382;2022-08-01T00:55:21;101308;;;unknown;61.90
74161;BME280;62512;-46.434;168.382;2022-08-01T00:56:23;101306;;;unknown;61.87
74161;BME280;62512;-46.434;168.382;2022-08-01T00:59:21;101294;;;unknown;61.63
74161;BME280;62512;-46.434;168.382;2022-08-01T01:00:21;101299;;;unknown;61.54
74161;BME280;62512;-46.434;168.382;2022-08-01T01:01:21;101300;;;unknown;61.46
74161;BME280;62512;-46.434;168.382;2022-08-01T01:02:21;101300;;;unknown;61.36
74161;BME280;62512;-46.434;168.382;2022-08-01T01:03:23;101293;;;unknown;61.22
74161;BME280;62512;-46.434;168.382;2022-08-01T01:04:21;101292;;;unknown;61.14
74161;BME280;62512;-46.434;168.382;2022-08-01T01:05:21;101293;;;unknown;61.24
74161;BME280;62512;-46.434;168.382;2022-08-01T01:06:25;101295;;;unknown;61.40
74161;BME280;62512;-46.434;168.382;2022-08-01T01:07:24;101291;;;unknown;61.51
74161;BME280;62512;-46.434;168.382;2022-08-01T01:08:22;101290;;;unknown;61.60
74161;BME280;62512;-46.434;168.382;2022-08-01T01:11:24;101280;;;unknown;61.47
74161;BME280;62512;-46.434;168.382;2022-08-01T01:13:23;101279;;;unknown;61.38
74161;BME280;62512;-46.434;168.382;2022-08-01T01:14:23;101278;;;unknown;61.20
74161;BME280;62512;-46.434;168.382;2022-08-01T01:15:23;101283;;;unknown;61.08
74161;BME280;62512;-46.434;168.382;2022-08-01T01:19:23;101271;;;unknown;61.02
74161;BME280;62512;-46.434;168.382;2022-08-01T01:21:28;101272;;;unknown;61.08
74161;BME280;62512;-46.434;168.382;2022-08-01T01:23:27;101260;;;unknown;61.19
74161;BME280;62512;-46.434;168.382;2022-08-01T01:25:29;101258;;;unknown;61.25
74161;BME280;62512;-46.434;168.382;2022-08-01T01:26:26;101261;;;unknown;61.29
74161;BME280;62512;-46.434;168.382;2022-08-01T01:28:26;101257;;;unknown;61.20
74161;BME280;62512;-46.434;168.382;2022-08-01T01:29:23;101257;;;unknown;61.20
74161;BME280;62512;-46.434;168.382;2022-08-01T01:30:21;101256;;;unknown;61.17
74161;BME280;62512;-46.434;168.382;2022-08-01T01:37:23;101239;;;unknown;61.09
74161;BME280;62512;-46.434;168.382;2022-08-01T01:38:22;101241;;;unknown;61.11
74161;BME280;62512;-46.434;168.382;2022-08-01T01:41:21;101223;;;unknown;61.09
74161;BME280;62512;-46.434;168.382;2022-08-01T01:42:21;101223;;;unknown;61.20
74161;BME280;62512;-46.434;168.382;2022-08-01T01:43:21;101224;;;unknown;61.31
74161;BME280;62512;-46.434;168.382;2022-08-01T01:44:21;101226;;;unknown;61.37
74161;BME280;62512;-46.434;168.382;2022-08-01T01:46:23;101217;;;unknown;61.33
74161;BME280;62512;-46.434;168.382;2022-08-01T01:47:21;101216;;;unknown;61.41
74161;BME280;62512;-46.434;168.382;2022-08-01T01:48:21;101212;;;unknown;61.44
74161;BME280;62512;-46.434;168.382;2022-08-01T01:50:21;101206;;;unknown;61.25
74161;BME280;62512;-46.434;168.382;2022-08-01T01:52:21;101210;;;unknown;61.14
74161;BME280;62512;-46.434;168.382;2022-08-01T01:57:21;101197;;;unknown;61.01
74161;BME280;62512;-46.434;168.382;2022-08-01T01:58:22;101196;;;unknown;60.98
74161;BME280;62512;-46.434;168.382;2022-08-01T02:00:21;101189;;;unknown;60.91
74161;BME280;62512;-46.434;168.382;2022-08-01T02:01:21;101190;;;unknown;60.90
74161;BME280;62512;-46.434;168.382;2022-08-01T02:04:21;101181;;;unknown;61.02
74161;BME280;62512;-46.434;168.382;2022-08-01T02:05:21;101177;;;unknown;61.05
74161;BME280;62512;-46.434;168.382;2022-08-01T02:06:21;101179;;;unknown;61.18
74161;BME280;62512;-46.434;168.382;2022-08-01T02:07:22;101179;;;unknown;61.25
74161;BME280;62512;-46.434;168.382;2022-08-01T02:08:21;101171;;;unknown;61.33
74161;BME280;62512;-46.434;168.382;2022-08-01T02:11:21;101166;;;unknown;61.19
74161;BME280;62512;-46.434;168.382;2022-08-01T02:12:21;101170;;;unknown;61.05
74161;BME280;62512;-46.434;168.382;2022-08-01T02:13:21;101168;;;unknown;60.82
74161;BME280;62512;-46.434;168.382;2022-08-01T02:14:21;101169;;;unknown;60.83
74161;BME280;62512;-46.434;168.382;2022-08-01T02:16:22;101159;;;unknown;60.74
74161;BME280;62512;-46.434;168.382;2022-08-01T02:18:21;101149;;;unknown;60.75
74161;BME280;62512;-46.434;168.382;2022-08-01T02:19:22;101147;;;unknown;60.67
74161;BME280;62512;-46.434;168.382;2022-08-01T02:20:21;101144;;;unknown;60.80
74161;BME280;62512;-46.434;168.382;2022-08-01T02:21:23;101141;;;unknown;60.79
74161;BME280;62512;-46.434;168.382;2022-08-01T02:22:24;101140;;;unknown;60.81
74161;BME280;62512;-46.434;168.382;2022-08-01T02:23:21;101136;;;unknown;60.74
74161;BME280;62512;-46.434;168.382;2022-08-01T02:24:24;101136;;;unknown;60.79
74161;BME280;62512;-46.434;168.382;2022-08-01T02:26:21;101134;;;unknown;60.97
74161;BME280;62512;-46.434;168.382;2022-08-01T02:29:22;101125;;;unknown;61.17
74161;BME280;62512;-46.434;168.382;2022-08-01T02:30:21;101122;;;unknown;61.17
74161;BME280;62512;-46.434;168.382;2022-08-01T02:31:21;101119;;;unknown;61.07
74161;BME280;62512;-46.434;168.382;2022-08-01T02:32:24;101123;;;unknown;61.17
74161;BME280;62512;-46.434;168.382;2022-08-01T02:34:22;101115;;;unknown;61.23
74161;BME280;62512;-46.434;168.382;2022-08-01T02:35:23;101111;;;unknown;61.19
74161;BME280;62512;-46.434;168.382;2022-08-01T02:36:21;101114;;;unknown;61.10
74161;BME280;62512;-46.434;168.382;2022-08-01T02:38:22;101117;;;unknown;61.05
74161;BME280;62512;-46.434;168.382;2022-08-01T02:40:21;101116;;;unknown;61.16
74161;BME280;62512;-46.434;168.382;2022-08-01T02:41:21;101116;;;unknown;61.21
74161;BME280;62512;-46.434;168.382;2022-08-01T02:42:22;101112;;;unknown;61.21
74161;BME280;62512;-46.434;168.382;2022-08-01T02:43:21;101107;;;unknown;61.23
74161;BME280;62512;-46.434;168.382;2022-08-01T02:44:23;101111;;;unknown;61.15
74161;BME280;62512;-46.434;168.382;2022-08-01T02:45:24;101104;;;unknown;61.12
74161;BME280;62512;-46.434;168.382;2022-08-01T02:46:22;101102;;;unknown;60.97
74161;BME280;62512;-46.434;168.382;2022-08-01T02:47:22;101099;;;unknown;60.84
74161;BME280;62512;-46.434;168.382;2022-08-01T02:48:21;101099;;;unknown;60.84
74161;BME280;62512;-46.434;168.382;2022-08-01T02:50:21;101100;;;unknown;60.83
74161;BME280;62512;-46.434;168.382;2022-08-01T02:51:21;101096;;;unknown;60.59
74161;BME280;62512;-46.434;168.382;2022-08-01T02:52:22;101096;;;unknown;60.61
74161;BME280;62512;-46.434;168.382;2022-08-01T02:53:22;101098;;;unknown;60.36
74161;BME280;62512;-46.434;168.382;2022-08-01T02:54:21;101094;;;unknown;60.43
74161;BME280;62512;-46.434;168.382;2022-08-01T02:55:21;101098;;;unknown;60.59
74161;BME280;62512;-46.434;168.382;2022-08-01T02:57:21;101100;;;unknown;60.56
74161;BME280;62512;-46.434;168.382;2022-08-01T02:58:21;101096;;;unknown;60.74
74161;BME280;62512;-46.434;168.382;2022-08-01T02:59:22;101096;;;unknown;60.58
74161;BME280;62512;-46.434;168.382;2022-08-01T03:00:21;101095;;;unknown;60.28
74161;BME280;62512;-46.434;168.382;2022-08-01T03:01:21;101091;;;unknown;60.28
74161;BME280;62512;-46.434;168.382;2022-08-01T03:02:21;101092;;;unknown;60.13
74161;BME280;62512;-46.434;168.382;2022-08-01T03:03:21;101088;;;unknown;60.29
74161;BME280;62512;-46.434;168.382;2022-08-01T03:04:22;101081;;;unknown;60.25
74161;BME280;62512;-46.434;168.382;2022-08-01T03:05:21;101078;;;unknown;60.03
74161;BME280;62512;-46.434;168.382;2022-08-01T03:06:21;101080;;;unknown;59.97
74161;BME280;62512;-46.434;168.382;2022-08-01T03:07:21;101078;;;unknown;59.91
74161;BME280;62512;-46.434;168.382;2022-08-01T03:08:21;101077;;;unknown;59.63
74161;BME280;62512;-46.434;168.382;2022-08-01T03:09:21;101073;;;unknown;59.38
74161;BME280;62512;-46.434;168.382;2022-08-01T03:11:21;101072;;;unknown;59.02
74161;BME280;62512;-46.434;168.382;2022-08-01T03:12:22;101067;;;unknown;59.05
74161;BME280;62512;-46.434;168.382;2022-08-01T03:13:21;101065;;;unknown;59.14
74161;BME280;62512;-46.434;168.382;2022-08-01T03:14:21;101069;;;unknown;59.02
74161;BME280;62512;-46.434;168.382;2022-08-01T03:15:21;101080;;;unknown;59.08
74161;BME280;62512;-46.434;168.382;2022-08-01T03:16:22;101073;;;unknown;58.89
74161;BME280;62512;-46.434;168.382;2022-08-01T03:17:22;101074;;;unknown;59.01
74161;BME280;62512;-46.434;168.382;2022-08-01T03:18:21;101076;;;unknown;59.11
74161;BME280;62512;-46.434;168.382;2022-08-01T03:19:22;101076;;;unknown;59.05
74161;BME280;62512;-46.434;168.382;2022-08-01T03:20:21;101080;;;unknown;59.08
74161;BME280;62512;-46.434;168.382;2022-08-01T03:21:22;101080;;;unknown;59.05
74161;BME280;62512;-46.434;168.382;2022-08-01T03:22:22;101082;;;unknown;59.15
74161;BME280;62512;-46.434;168.382;2022-08-01T03:23:21;101076;;;unknown;59.26
74161;BME280;62512;-46.434;168.382;2022-08-01T03:24:21;101084;;;unknown;59.30
74161;BME280;62512;-46.434;168.382;2022-08-01T03:25:21;101086;;;unknown;58.93
74161;BME280;62512;-46.434;168.382;2022-08-01T03:26:21;101089;;;unknown;58.87
74161;BME280;62512;-46.434;168.382;2022-08-01T03:27:22;101081;;;unknown;58.97
74161;BME280;62512;-46.434;168.382;2022-08-01T03:29:22;101071;;;unknown;58.91
74161;BME280;62512;-46.434;168.382;2022-08-01T03:30:21;101073;;;unknown;58.95
74161;BME280;62512;-46.434;168.382;2022-08-01T03:32:21;101072;;;unknown;59.12
74161;BME280;62512;-46.434;168.382;2022-08-01T03:33:21;101068;;;unknown;59.19
74161;BME280;62512;-46.434;168.382;2022-08-01T03:34:21;101079;;;unknown;59.23
74161;BME280;62512;-46.434;168.382;2022-08-01T03:35:21;101079;;;unknown;59.23
74161;BME280;62512;-46.434;168.382;2022-08-01T03:36:23;101076;;;unknown;59.43
74161;BME280;62512;-46.434;168.382;2022-08-01T03:37:23;101075;;;unknown;59.50
74161;BME280;62512;-46.434;168.382;2022-08-01T03:38:22;101075;;;unknown;59.50
74161;BME280;62512;-46.434;168.382;2022-08-01T03:39:22;101070;;;unknown;59.28
74161;BME280;62512;-46.434;168.382;2022-08-01T03:40:23;101063;;;unknown;59.51
74161;BME280;62512;-46.434;168.382;2022-08-01T03:42:23;101065;;;unknown;59.77
74161;BME280;62512;-46.434;168.382;2022-08-01T03:43:28;101052;;;unknown;59.80
74161;BME280;62512;-46.434;168.382;2022-08-01T03:45:25;101053;;;unknown;59.85
74161;BME280;62512;-46.434;168.382;2022-08-01T03:49:23;101046;;;unknown;60.61
74161;BME280;62512;-46.434;168.382;2022-08-01T03:50:21;101039;;;unknown;60.75
74161;BME280;62512;-46.434;168.382;2022-08-01T03:51:21;101045;;;unknown;60.59
74161;BME280;62512;-46.434;168.382;2022-08-01T03:52:21;101049;;;unknown;60.60
74161;BME280;62512;-46.434;168.382;2022-08-01T03:53:23;101051;;;unknown;60.74
74161;BME280;62512;-46.434;168.382;2022-08-01T03:54:23;101049;;;unknown;60.78
74161;BME280;62512;-46.434;168.382;2022-08-01T03:56:21;101043;;;unknown;60.88
74161;BME280;62512;-46.434;168.382;2022-08-01T03:57:21;101042;;;unknown;61.10
74161;BME280;62512;-46.434;168.382;2022-08-01T04:00:21;101031;;;unknown;61.34
74161;BME280;62512;-46.434;168.382;2022-08-01T04:01:21;101032;;;unknown;61.41
74161;BME280;62512;-46.434;168.382;2022-08-01T04:02:21;101030;;;unknown;61.45
74161;BME280;62512;-46.434;168.382;2022-08-01T04:03:21;101025;;;unknown;61.42
74161;BME280;62512;-46.434;168.382;2022-08-01T04:04:21;101022;;;unknown;61.46
74161;BME280;62512;-46.434;168.382;2022-08-01T04:05:21;101020;;;unknown;61.49
74161;BME280;62512;-46.434;168.382;2022-08-01T04:06:21;101018;;;unknown;61.58
74161;BME280;62512;-46.434;168.382;2022-08-01T04:07:22;101013;;;unknown;61.48
74161;BME280;62512;-46.434;168.382;2022-08-01T04:08:21;101014;;;unknown;61.62
74161;BME280;62512;-46.434;168.382;2022-08-01T04:09:21;101011;;;unknown;61.72
74161;BME280;62512;-46.434;168.382;2022-08-01T04:10:21;101012;;;unknown;61.63
74161;BME280;62512;-46.434;168.382;2022-08-01T04:12:21;101013;;;unknown;61.73
74161;BME280;62512;-46.434;168.382;2022-08-01T04:13:21;101010;;;unknown;61.75
74161;BME280;62512;-46.434;168.382;2022-08-01T04:16:22;101010;;;unknown;62.10
74161;BME280;62512;-46.434;168.382;2022-08-01T04:18:21;101008;;;unknown;62.15
74161;BME280;62512;-46.434;168.382;2022-08-01T04:19:21;101014;;;unknown;62.17
74161;BME280;62512;-46.434;168.382;2022-08-01T04:20:21;101006;;;unknown;62.28
74161;BME280;62512;-46.434;168.382;2022-08-01T04:21:22;101002;;;unknown;62.35
74161;BME280;62512;-46.434;168.382;2022-08-01T04:22:21;101003;;;unknown;62.23
74161;BME280;62512;-46.434;168.382;2022-08-01T04:23:22;101004;;;unknown;62.39
74161;BME280;62512;-46.434;168.382;2022-08-01T04:24:21;100997;;;unknown;62.41
74161;BME280;62512;-46.434;168.382;2022-08-01T04:25:23;100994;;;unknown;62.54
74161;BME280;62512;-46.434;168.382;2022-08-01T04:26:21;100992;;;unknown;62.64
74161;BME280;62512;-46.434;168.382;2022-08-01T04:27:22;100990;;;unknown;62.63
74161;BME280;62512;-46.434;168.382;2022-08-01T04:28:21;100990;;;unknown;62.62
74161;BME280;62512;-46.434;168.382;2022-08-01T04:29:21;100995;;;unknown;62.55
74161;BME280;62512;-46.434;168.382;2022-08-01T04:30:23;101000;;;unknown;62.64
74161;BME280;62512;-46.434;168.382;2022-08-01T04:31:21;100999;;;unknown;62.80
74161;BME280;62512;-46.434;168.382;2022-08-01T04:32:21;100998;;;unknown;62.72
74161;BME280;62512;-46.434;168.382;2022-08-01T04:33:21;100996;;;unknown;62.92
74161;BME280;62512;-46.434;168.382;2022-08-01T04:34:22;100997;;;unknown;63.01
74161;BME280;62512;-46.434;168.382;2022-08-01T04:35:21;100998;;;unknown;63.14
74161;BME280;62512;-46.434;168.382;2022-08-01T04:36:22;100995;;;unknown;63.29
74161;BME280;62512;-46.434;168.382;2022-08-01T04:37:21;100996;;;unknown;63.41
74161;BME280;62512;-46.434;168.382;2022-08-01T04:38:22;100995;;;unknown;63.59
74161;BME280;62512;-46.434;168.382;2022-08-01T04:39:21;100992;;;unknown;63.62
74161;BME280;62512;-46.434;168.382;2022-08-01T04:40:21;100990;;;unknown;63.78
74161;BME280;62512;-46.434;168.382;2022-08-01T04:41:21;100991;;;unknown;63.76
74161;BME280;62512;-46.434;168.382;2022-08-01T04:42:21;100990;;;unknown;63.91
74161;BME280;62512;-46.434;168.382;2022-08-01T04:43:21;100989;;;unknown;63.95
74161;BME280;62512;-46.434;168.382;2022-08-01T04:44:21;100990;;;unknown;64.08
74161;BME280;62512;-46.434;168.382;2022-08-01T04:45:21;100988;;;unknown;64.21
74161;BME280;62512;-46.434;168.382;2022-08-01T04:46:21;100986;;;unknown;64.22
74161;BME280;62512;-46.434;168.382;2022-08-01T04:47:21;100982;;;unknown;64.31
74161;BME280;62512;-46.434;168.382;2022-08-01T04:48:21;100977;;;unknown;64.36
74161;BME280;62512;-46.434;168.382;2022-08-01T04:49:21;100977;;;unknown;64.36
74161;BME280;62512;-46.434;168.382;2022-08-01T04:50:21;100973;;;unknown;64.42
74161;BME280;62512;-46.434;168.382;2022-08-01T04:51:21;100973;;;unknown;64.54
74161;BME280;62512;-46.434;168.382;2022-08-01T04:52:21;100974;;;unknown;64.68
74161;BME280;62512;-46.434;168.382;2022-08-01T04:53:21;100977;;;unknown;64.65
74161;BME280;62512;-46.434;168.382;2022-08-01T04:54:21;100976;;;unknown;64.80
74161;BME280;62512;-46.434;168.382;2022-08-01T04:55:21;100977;;;unknown;64.86
74161;BME280;62512;-46.434;168.382;2022-08-01T04:56:21;100975;;;unknown;64.89
74161;BME280;62512;-46.434;168.382;2022-08-01T04:57:21;100974;;;unknown;64.93
74161;BME280;62512;-46.434;168.382;2022-08-01T04:58:21;100969;;;unknown;65.01
74161;BME280;62512;-46.434;168.382;2022-08-01T04:59:21;100966;;;unknown;65.05
74161;BME280;62512;-46.434;168.382;2022-08-01T05:01:21;100976;;;unknown;64.98
74161;BME280;62512;-46.434;168.382;2022-08-01T05:03:21;100969;;;unknown;65.01
74161;BME280;62512;-46.434;168.382;2022-08-01T05:04:21;100974;;;unknown;65.09
74161;BME280;62512;-46.434;168.382;2022-08-01T05:06:21;100966;;;unknown;65.08
74161;BME280;62512;-46.434;168.382;2022-08-01T05:11:21;100962;;;unknown;65.11
74161;BME280;62512;-46.434;168.382;2022-08-01T05:12:21;100957;;;unknown;65.11
74161;BME280;62512;-46.434;168.382;2022-08-01T05:14:21;100963;;;unknown;65.13
74161;BME280;62512;-46.434;168.382;2022-08-01T05:15:21;100962;;;unknown;65.15
74161;BME280;62512;-46.434;168.382;2022-08-01T05:16:21;100959;;;unknown;65.11
74161;BME280;62512;-46.434;168.382;2022-08-01T05:17:21;100964;;;unknown;65.04
74161;BME280;62512;-46.434;168.382;2022-08-01T05:19:21;100964;;;unknown;65.08
74161;BME280;62512;-46.434;168.382;2022-08-01T05:22:21;100966;;;unknown;64.96
74161;BME280;62512;-46.434;168.382;2022-08-01T05:24:21;100955;;;unknown;64.99
74161;BME280;62512;-46.434;168.382;2022-08-01T05:26:21;100954;;;unknown;65.02
74161;BME280;62512;-46.434;168.382;2022-08-01T05:29:21;100955;;;unknown;65.07
74161;BME280;62512;-46.434;168.382;2022-08-01T05:32:21;100955;;;unknown;65.25
74161;BME280;62512;-46.434;168.382;2022-08-01T05:33:21;100949;;;unknown;65.17
74161;BME280;62512;-46.434;168.382;2022-08-01T05:34:21;100952;;;unknown;65.23
74161;BME280;62512;-46.434;168.382;2022-08-01T05:35:21;100955;;;unknown;65.24
74161;BME280;62512;-46.434;168.382;2022-08-01T05:37:21;100954;;;unknown;65.29
74161;BME280;62512;-46.434;168.382;2022-08-01T05:38:21;100953;;;unknown;65.41
74161;BME280;62512;-46.434;168.382;2022-08-01T05:39:21;100947;;;unknown;65.49
74161;BME280;62512;-46.434;168.382;2022-08-01T05:40:21;100944;;;unknown;65.59
74161;BME280;62512;-46.434;168.382;2022-08-01T05:41:21;100946;;;unknown;65.64
74161;BME280;62512;-46.434;168.382;2022-08-01T05:42:21;100945;;;unknown;65.72
74161;BME280;62512;-46.434;168.382;2022-08-01T05:43:21;100946;;;unknown;65.79
74161;BME280;62512;-46.434;168.382;2022-08-01T05:44:21;100941;;;unknown;65.92
74161;BME280;62512;-46.434;168.382;2022-08-01T05:45:21;100939;;;unknown;65.92
74161;BME280;62512;-46.434;168.382;2022-08-01T05:46:21;100939;;;unknown;66.00
74161;BME280;62512;-46.434;168.382;2022-08-01T05:47:21;100939;;;unknown;66.10
74161;BME280;62512;-46.434;168.382;2022-08-01T05:48:21;100935;;;unknown;66.16
74161;BME280;62512;-46.434;168.382;2022-08-01T05:49:21;100933;;;unknown;66.25
74161;BME280;62512;-46.434;168.382;2022-08-01T05:50:21;100930;;;unknown;66.31
74161;BME280;62512;-46.434;168.382;2022-08-01T05:51:21;100933;;;unknown;66.41
74161;BME280;62512;-46.434;168.382;2022-08-01T05:52:21;100935;;;unknown;66.41
74161;BME280;62512;-46.434;168.382;2022-08-01T05:53:21;100932;;;unknown;66.50
74161;BME280;62512;-46.434;168.382;2022-08-01T05:54:21;100927;;;unknown;66.56
74161;BME280;62512;-46.434;168.382;2022-08-01T05:55:21;100925;;;unknown;66.65
74161;BME280;62512;-46.434;168.382;2022-08-01T05:56:21;100926;;;unknown;66.73
74161;BME280;62512;-46.434;168.382;2022-08-01T05:57:21;100925;;;unknown;66.81
74161;BME280;62512;-46.434;168.382;2022-08-01T05:58:21;100926;;;unknown;66.85
74161;BME280;62512;-46.434;168.382;2022-08-01T05:59:21;100925;;;unknown;66.94
74161;BME280;62512;-46.434;168.382;2022-08-01T06:01:21;100921;;;unknown;67.12
74161;BME280;62512;-46.434;168.382;2022-08-01T06:03:21;100920;;;unknown;67.21
74161;BME280;62512;-46.434;168.382;2022-08-01T06:04:21;100917;;;unknown;67.26
74161;BME280;62512;-46.434;168.382;2022-08-01T06:11:21;100906;;;unknown;67.61
74161;BME280;62512;-46.434;168.382;2022-08-01T06:14:21;100911;;;unknown;67.66
74161;BME280;62512;-46.434;168.382;2022-08-01T06:15:21;100907;;;unknown;67.64
74161;BME280;62512;-46.434;168.382;2022-08-01T06:21:21;100905;;;unknown;67.60
74161;BME280;62512;-46.434;168.382;2022-08-01T06:23:21;100899;;;unknown;67.64
74161;BME280;62512;-46.434;168.382;2022-08-01T06:25:21;100891;;;unknown;67.70
74161;BME280;62512;-46.434;168.382;2022-08-01T06:26:21;100895;;;unknown;67.70
74161;BME280;62512;-46.434;168.382;2022-08-01T06:27:21;100891;;;unknown;67.70
74161;BME280;62512;-46.434;168.382;2022-08-01T06:28:21;100892;;;unknown;67.71
74161;BME280;62512;-46.434;168.382;2022-08-01T06:29:21;100892;;;unknown;67.74
74161;BME280;62512;-46.434;168.382;2022-08-01T06:30:21;100891;;;unknown;67.81
74161;BME280;62512;-46.434;168.382;2022-08-01T06:31:21;100890;;;unknown;67.86
74161;BME280;62512;-46.434;168.382;2022-08-01T06:32:21;100895;;;unknown;67.95
74161;BME280;62512;-46.434;168.382;2022-08-01T06:34:21;100890;;;unknown;67.91
74161;BME280;62512;-46.434;168.382;2022-08-01T06:35:21;100884;;;unknown;67.92
74161;BME280;62512;-46.434;168.382;2022-08-01T06:36:21;100879;;;unknown;67.92
74161;BME280;62512;-46.434;168.382;2022-08-01T06:37:21;100883;;;unknown;67.94
74161;BME280;62512;-46.434;168.382;2022-08-01T06:38:21;100877;;;unknown;67.93
74161;BME280;62512;-46.434;168.382;2022-08-01T06:39:21;100879;;;unknown;67.94
74161;BME280;62512;-46.434;168.382;2022-08-01T06:40:21;100876;;;unknown;67.96
74161;BME280;62512;-46.434;168.382;2022-08-01T06:41:21;100874;;;unknown;67.99
74161;BME280;62512;-46.434;168.382;2022-08-01T06:42:21;100876;;;unknown;68.00
74161;BME280;62512;-46.434;168.382;2022-08-01T06:43:22;100873;;;unknown;68.04
74161;BME280;62512;-46.434;168.382;2022-08-01T06:44:21;100873;;;unknown;68.04
74161;BME280;62512;-46.434;168.382;2022-08-01T06:45:21;100877;;;unknown;68.04
74161;BME280;62512;-46.434;168.382;2022-08-01T06:47:21;100882;;;unknown;68.08
74161;BME280;62512;-46.434;168.382;2022-08-01T06:48:21;100876;;;unknown;68.07
74161;BME280;62512;-46.434;168.382;2022-08-01T06:49:21;100875;;;unknown;68.08
74161;BME280;62512;-46.434;168.382;2022-08-01T06:51:21;100875;;;unknown;68.10
74161;BME280;62512;-46.434;168.382;2022-08-01T06:53:21;100877;;;unknown;68.08